• Join FlightAware (Why Join?)
  • Login
  • US Flag 
11:18PM EST


 

Airport Tracker/Info


-or-


 

Live Flight TrackerFlight Track Log ✈ AVN21 ✈ 07-Mar-2014 ✈ YBBN / BNE - NVVV / VLI

Flight Track Log - Related Links

Times and Time Zones

All times are in EST time to prevent confusion due to time zone crossing. See the AVN21 flight status page for this flight to view local times or setup timezone preferences in your user account.

Time Position Orientation Groundspeed Altitude Reporting Facility
EST Latitude Longitude Course Direction KTS MPH feet Rate Location/Type
04:04AM -27.3284 153.1762 220° Southwest 3,100  Level Aus ATC (Calculated)
04:04AM -27.3713 153.1359 26° Northeast 167 192 500 -5,460 Descending FlightAware ADS-B (KSNA)
04:05AM -27.3587 153.1444 39° Northeast 165 190 1,100 1,500 Climbing FlightAware ADS-B (KSNA)
04:05AM -27.3481 153.1553 43° Northeast 189 217 1,500 1,320 Climbing FlightAware ADS-B (KSNA)
04:05AM -27.3338 153.1703 43° Northeast 207 238 2,000 2,100 Climbing FlightAware ADS-B (KSNA)
04:06AM -27.3200 153.1865 53° Northeast 207 238 2,900 2,520 Climbing FlightAware ADS-B (KSNA)
04:06AM -27.3117 153.2041 71° East 208 239 3,700 1,860 Climbing FlightAware ADS-B (KSNA)
04:06AM -27.3062 153.2227 73° East 234 269 4,100 1,500 Climbing FlightAware ADS-B (KSNA)
04:07AM -27.2981 153.2529 73° East 256 295 4,700 1,800 Climbing FlightAware ADS-B (KSNA)
04:07AM -27.2908 153.2794 73° East 266 306 5,400 2,340 Climbing FlightAware ADS-B (KSNA)
04:07AM -27.2839 153.3044 73° East 273 314 6,200 2,820 Climbing FlightAware ADS-B (KSNA)
04:08AM -27.2753 153.3346 72° East 272 313 7,300 2,700 Climbing FlightAware ADS-B (KSNA)
04:08AM -27.2677 153.3614 73° East 279 321 8,100 2,760 Climbing FlightAware ADS-B (KSNA)
04:08AM -27.2603 153.3882 73° East 282 325 9,100 2,760 Climbing FlightAware ADS-B (KSNA)
04:09AM -27.2527 153.4155 73° East 289 333 9,900 1,680 Climbing FlightAware ADS-B (KSNA)
04:10AM -27.2280 153.5004 73° East 324 373 11,200 1,500 Climbing Aus ATC (RADAR)
04:10AM -27.2252 153.5121 72° East 347 399 11,400 2,400 Climbing FlightAware ADS-B (KSNA)
04:10AM -27.2151 153.5477 74° East 350 403 12,300 2,640 Climbing FlightAware ADS-B (YTWB)
04:11AM -27.1967 153.6127 73° East 368 423 14,000 2,880 Climbing FlightAware ADS-B (KSNA)
04:11AM -27.1860 153.6471 69° East 373 429 14,800 2,400 Climbing FlightAware ADS-B (LICP)
04:12AM -27.1473 153.7215 56° Northeast 389 448 16,500 2,220 Climbing FlightAware ADS-B (KSNA)
04:12AM -27.1151 153.7754 56° Northeast 456 525 17,700 2,160 Climbing FlightAware ADS-B (YTWB)
04:13AM -27.0753 153.8423 57° Northeast 413 475 19,000 2,100 Climbing FlightAware ADS-B (YTWB)
04:13AM -27.0707 153.8501 57° Northeast 415 478 19,200 2,160 Climbing FlightAware ADS-B (YTWB)
04:14AM -27.0306 153.9170 57° Northeast 423 487 20,500 2,100 Climbing FlightAware ADS-B (YTWB)
04:14AM -26.9976 153.9723 56° Northeast 434 499 21,600 1,980 Climbing FlightAware ADS-B (KSNA)
04:15AM -26.9418 154.0658 56° Northeast 448 516 23,100 1,740 Climbing Aus ATC (RADAR)
04:15AM -26.9230 154.0969 56° Northeast 461 531 23,900 1,740 Climbing FlightAware ADS-B (KSNA)
04:16AM -26.8644 154.1940 56° Northeast 461 531 25,000 1,740 Climbing Aus ATC (RADAR)
04:16AM -26.8614 154.1996 56° Northeast 468 539 25,000 1,860 Level FlightAware ADS-B (KSNA)
04:16AM -26.8216 154.2644 56° Northeast 467 537 26,100 1,740 Climbing Aus ATC (RADAR)
04:17AM -26.7786 154.3366 56° Northeast 477 549 27,000 1,260 Climbing Aus ATC (RADAR)
04:17AM -26.7701 154.3515 56° Northeast 484 557 27,200 1,440 Climbing FlightAware ADS-B (KSNA)
04:18AM -26.6959 154.4725 56° Northeast 490 564 28,600 1,560 Climbing Aus ATC (RADAR)
04:18AM -26.6701 154.5153 56° Northeast 494 568 29,000 1,260 Climbing Aus ATC (RADAR)
04:19AM -26.6180 154.6021 56° Northeast 502 578 29,900 1,800 Climbing Aus ATC (RADAR)
04:20AM -26.5736 154.6780 57° Northeast 498 573 31,300 2,040 Climbing Aus ATC (RADAR)
04:20AM -26.5292 154.7521 56° Northeast 492 566 32,300 1,080 Climbing Aus ATC (RADAR)
04:21AM -26.4829 154.8256 55° Northeast 495 570 32,600 660 Climbing Aus ATC (RADAR)
04:21AM -26.4357 154.9022 55° Northeast 510 587 33,100 1,080 Climbing Aus ATC (RADAR)
04:22AM -26.3887 154.9797 56° Northeast 515 593 33,900 1,260 Climbing Aus ATC (RADAR)
04:23AM -26.3204 155.0887 55° Northeast 511 588 34,900 1,200 Climbing Aus ATC (RADAR)
04:23AM -26.2876 155.1450 57° Northeast 514 592 35,400 1,200 Climbing Aus ATC (RADAR)
04:24AM -26.2341 155.2334 56° Northeast 514 592 36,200 1,080 Climbing Aus ATC (RADAR)
04:25AM -26.1660 155.3425 55° Northeast 513 590 37,100 1,080 Climbing Aus ATC (RADAR)
04:25AM -26.1187 155.4191 55° Northeast 512 589 37,800 1,320 Climbing Aus ATC (RADAR)
04:26AM -26.0655 155.5051 55° Northeast 504 580 38,800 1,380 Climbing Aus ATC (RADAR)
04:26AM -26.0329 155.5582 56° Northeast 498 573 39,300 240 Climbing Aus ATC (RADAR)
04:27AM -25.9806 155.6432 56° Northeast 495 570 39,100 -120 Descending Aus ATC (RADAR)
04:28AM -25.9000 155.7690 55° Northeast 496 571 39,100  Level Aus ATC (RADAR)
04:28AM -25.8806 155.8013 56° Northeast 496 571 39,100  Level Aus ATC (RADAR)
04:29AM -25.8351 155.8757 56° Northeast 494 568 39,100 60 Level Aus ATC (RADAR)
04:30AM -25.7756 155.9708 55° Northeast 494 568 39,200 60 Climbing Aus ATC (RADAR)
04:30AM -25.7290 156.0443 55° Northeast 493 567 39,200 -120 Level Aus ATC (RADAR)
04:31AM -25.6839 156.1188 56° Northeast 494 568 39,100  Descending Aus ATC (RADAR)
04:32AM -25.6334 156.2056 57° Northeast 492 566 39,200 60 Climbing Aus ATC (RADAR)
04:32AM -25.5898 156.2806 57° Northeast 491 565 39,200 -180 Level Aus ATC (RADAR)
04:33AM -25.5095 156.4205 58° Northeast 490 564 39,000 -180 Descending Aus ATC (RADAR)
04:34AM -25.4777 156.4731 56° Northeast 488 562 39,000  Level Aus ATC (RADAR)
04:34AM -25.4280 156.5582 57° Northeast 487 560 39,000  Level Aus ATC (RADAR)
04:35AM -25.3858 156.6340 58° Northeast 487 560 39,000  Level Aus ATC (RADAR)
04:35AM -25.3413 156.7072 56° Northeast 486 559 39,000  Level Aus ATC (RADAR)
04:36AM -25.2913 156.7921 57° Northeast 486 559 39,000  Level Aus ATC (RADAR)
04:37AM -25.2530 156.8549 56° Northeast 486 559 39,000  Level Aus ATC (RADAR)
04:37AM -25.2075 156.9278 55° Northeast 488 562 39,000  Level Aus ATC (RADAR)
04:38AM -25.1301 157.0541 56° Northeast 489 563 39,000  Level Aus ATC (RADAR)
04:39AM -25.0981 157.1076 57° Northeast 490 564 39,000  Level Aus ATC (RADAR)
04:39AM -25.0537 157.1826 57° Northeast 491 565 39,000  Level Aus ATC (RADAR)
04:40AM -24.9945 157.2771 55° Northeast 492 566 39,000  Level Aus ATC (RADAR)
04:40AM -24.9816 157.2972 55° Northeast 492 566 39,000  Level Aus ATC (RADAR)
04:44AM -24.6900 157.7860 57° Northeast 37,000 -420 Descending Aus ATC (Calculated)
04:45AM -24.5920 157.9491 236° Southwest 37,000  Level Aus ATC (Calculated)
04:46AM -24.7979 157.6082 236° Southwest  Level FlightAware Approximate
04:47AM -24.6770 157.8094 236° Southwest  Level FlightAware Approximate
04:48AM -24.7459 157.6960 236° Southwest  Level FlightAware Approximate
04:49AM -24.8146 157.5824 236° Southwest  Level FlightAware Approximate
04:50AM -24.8833 157.4687 236° Southwest  Level FlightAware Approximate
04:51AM -24.9519 157.3549 236° Southwest  Level FlightAware Approximate
04:52AM -25.0203 157.2410 236° Southwest  Level FlightAware Approximate
04:53AM -25.0888 157.1269 236° Southwest  Level FlightAware Approximate
04:54AM -25.1571 157.0127 237° Southwest  Level FlightAware Approximate
04:55AM -25.2253 156.8984 237° Southwest  Level FlightAware Approximate
04:56AM -25.2934 156.7840 237° Southwest  Level FlightAware Approximate
04:57AM -25.3615 156.6694 237° Southwest  Level FlightAware Approximate
04:57AM -23.7054 159.3940 236° Southwest 39,000  Level Aus ATC (Calculated)
04:58AM -23.7752 159.2822 236° Southwest  Level FlightAware Approximate
04:59AM -23.8450 159.1702 236° Southwest  Level FlightAware Approximate
04:59AM -23.5267 159.6801 236° Southwest 39,000  Level Aus ATC (Calculated)
05:01AM -23.6578 159.4712 236° Southwest  Level FlightAware Approximate
05:02AM -23.7266 159.3611 236° Southwest  Level FlightAware Approximate
05:03AM -23.7954 159.2509 236° Southwest  Level FlightAware Approximate
05:04AM -23.8641 159.1406 236° Southwest  Level FlightAware Approximate
05:05AM -23.9327 159.0301 236° Southwest  Level FlightAware Approximate
05:06AM -23.8645 159.1409 57° Northeast  Level Estimated
05:07AM -23.7965 159.2518 56° Northeast  Level FlightAware Approximate
05:08AM -23.7285 159.3625 56° Northeast  Level FlightAware Approximate
05:08AM -22.7300 160.9370 235° Southwest 39,000  Level Aus ATC (Calculated)
05:09AM -23.6604 159.4732 56° Northeast  Level FlightAware Approximate
05:10AM -22.8174 160.8013 235° Southwest  Level FlightAware Approximate
05:11AM -22.8872 160.6927 235° Southwest  Level FlightAware Approximate
05:12AM -22.9570 160.5839 235° Southwest  Level FlightAware Approximate
05:12AM -22.4790 161.3268 235° Southwest 39,000  Level Aus ATC (Calculated)
05:13AM -22.5491 161.2186 235° Southwest  Level FlightAware Approximate
05:14AM -22.6192 161.1104 235° Southwest  Level FlightAware Approximate
05:15AM -22.6891 161.0020 235° Southwest  Level FlightAware Approximate
05:16AM -22.7591 160.8935 235° Southwest  Level FlightAware Approximate
05:17AM -22.8289 160.7848 235° Southwest  Level FlightAware Approximate
05:18AM -22.8987 160.6761 235° Southwest  Level FlightAware Approximate
05:19AM -22.9684 160.5673 235° Southwest  Level FlightAware Approximate
05:20AM -23.0380 160.4583 235° Southwest  Level FlightAware Approximate
05:21AM -23.1076 160.3493 235° Southwest  Level FlightAware Approximate
05:22AM -23.1770 160.2401 235° Southwest  Level FlightAware Approximate
05:22AM -21.6222 162.6362 234° Southwest 39,000  Level Aus ATC (Calculated)
05:23AM -21.6931 162.5292 234° Southwest  Level FlightAware Approximate
05:24AM -21.7640 162.4222 235° Southwest  Level FlightAware Approximate
05:25AM -21.8348 162.3151 235° Southwest  Level FlightAware Approximate
05:26AM -21.9055 162.2078 235° Southwest  Level FlightAware Approximate
05:27AM -21.9761 162.1005 235° Southwest  Level FlightAware Approximate
05:28AM -22.0467 161.9930 235° Southwest  Level FlightAware Approximate
05:29AM -22.1172 161.8854 235° Southwest  Level FlightAware Approximate
05:30AM -22.1876 161.7778 235° Southwest  Level FlightAware Approximate
05:31AM -22.2579 161.6700 235° Southwest  Level FlightAware Approximate
05:32AM -22.3282 161.5621 235° Southwest  Level FlightAware Approximate
05:33AM -22.3984 161.4541 235° Southwest  Level FlightAware Approximate
05:34AM -22.4686 161.3460 235° Southwest  Level FlightAware Approximate
05:35AM -22.5387 161.2377 235° Southwest  Level FlightAware Approximate
05:36AM -22.4690 161.3463 56° Northeast  Level Estimated
05:37AM -22.3988 161.4544 55° Northeast  Level FlightAware Approximate
05:38AM -22.3286 161.5624 55° Northeast  Level FlightAware Approximate
05:39AM -22.2583 161.6703 55° Northeast  Level FlightAware Approximate
05:40AM -22.1880 161.7780 55° Northeast  Level FlightAware Approximate
05:41AM -22.1175 161.8857 55° Northeast  Level FlightAware Approximate
05:42AM -22.0471 161.9933 55° Northeast  Level FlightAware Approximate
05:43AM -21.9765 162.1008 55° Northeast  Level FlightAware Approximate
05:44AM -21.9058 162.2081 55° Northeast  Level FlightAware Approximate
05:45AM -21.8351 162.3154 55° Northeast  Level FlightAware Approximate
05:46AM -21.7644 162.4225 55° Northeast  Level FlightAware Approximate
05:47AM -21.6935 162.5295 55° Northeast  Level FlightAware Approximate
05:48AM -21.6226 162.6364 55° Northeast  Level FlightAware Approximate
05:49AM -21.5516 162.7433 54° Northeast  Level FlightAware Approximate
05:50AM -21.4806 162.8500 54° Northeast  Level FlightAware Approximate
05:51AM -21.4095 162.9566 54° Northeast  Level FlightAware Approximate
05:52AM -21.3383 163.0631 54° Northeast  Level FlightAware Approximate
05:53AM -21.4095 162.9566 234° Southwest  Level FlightAware Approximate
05:54AM -21.3383 163.0631 54° Northeast  Level FlightAware Approximate
05:55AM -21.4095 162.9566 234° Southwest  Level FlightAware Approximate
05:56AM -21.3383 163.0631 54° Northeast  Level FlightAware Approximate
05:57AM -21.4095 162.9566 234° Southwest  Level FlightAware Approximate
05:58AM -21.3383 163.0631 54° Northeast  Level FlightAware Approximate
05:59AM -21.4095 162.9566 234° Southwest  Level FlightAware Approximate
06:00AM -21.3383 163.0631 54° Northeast  Level FlightAware Approximate
06:01AM -21.4095 162.9566 234° Southwest  Level FlightAware Approximate
06:02AM -21.3383 163.0631 54° Northeast  Level FlightAware Approximate
06:03AM -21.4095 162.9566 234° Southwest  Level FlightAware Approximate
06:04AM -21.3383 163.0631 54° Northeast  Level FlightAware Approximate
06:05AM -21.4095 162.9566 234° Southwest  Level FlightAware Approximate
06:06AM -21.3383 163.0631 54° Northeast  Level FlightAware Approximate
06:07AM -21.4095 162.9566 234° Southwest  Level FlightAware Approximate
06:08AM -21.3383 163.0631 54° Northeast  Level FlightAware Approximate
06:09AM -21.3205 163.0884 54° Northeast  Level FlightAware Approximate
06:10AM -21.2486 163.1942 54° Northeast  Level FlightAware Approximate
06:11AM -21.1766 163.3000 54° Northeast  Level FlightAware Approximate
06:12AM -21.1045 163.4056 54° Northeast  Level FlightAware Approximate
06:13AM -21.0324 163.5112 54° Northeast  Level FlightAware Approximate
06:14AM -20.9602 163.6166 54° Northeast  Level FlightAware Approximate
06:15AM -20.8879 163.7220 54° Northeast  Level FlightAware Approximate
06:16AM -20.8156 163.8272 54° Northeast  Level FlightAware Approximate
06:17AM -20.7432 163.9324 54° Northeast  Level FlightAware Approximate
06:18AM -20.6707 164.0374 54° Northeast  Level FlightAware Approximate
06:19AM -20.5982 164.1424 54° Northeast  Level FlightAware Approximate
06:20AM -20.5256 164.2472 54° Northeast  Level FlightAware Approximate
06:21AM -20.4529 164.3519 54° Northeast  Level FlightAware Approximate
06:22AM -20.3802 164.4566 53° Northeast  Level FlightAware Approximate
06:23AM -20.3074 164.5611 53° Northeast  Level FlightAware Approximate
06:24AM -20.2346 164.6656 53° Northeast  Level FlightAware Approximate
06:25AM -20.1617 164.7699 53° Northeast  Level FlightAware Approximate
06:26AM -20.0887 164.8742 53° Northeast  Level FlightAware Approximate
06:27AM -20.0157 164.9783 53° Northeast  Level FlightAware Approximate
06:28AM -19.9426 165.0824 53° Northeast  Level FlightAware Approximate
06:29AM -19.8695 165.1864 53° Northeast  Level FlightAware Approximate
06:30AM -19.7963 165.2902 53° Northeast  Level FlightAware Approximate
06:31AM -19.7230 165.3940 53° Northeast  Level FlightAware Approximate
06:32AM -19.6497 165.4977 53° Northeast  Level FlightAware Approximate
06:33AM -19.5763 165.6013 53° Northeast  Level FlightAware Approximate
06:34AM -19.5029 165.7047 53° Northeast  Level FlightAware Approximate
06:35AM -19.4294 165.8082 53° Northeast  Level FlightAware Approximate
06:36AM -19.3558 165.9114 53° Northeast  Level FlightAware Approximate
06:37AM -19.2822 166.0146 53° Northeast  Level FlightAware Approximate
06:38AM -19.2085 166.1178 53° Northeast  Level FlightAware Approximate
06:39AM -19.1348 166.2208 53° Northeast  Level FlightAware Approximate
06:40AM -19.0610 166.3237 53° Northeast  Level FlightAware Approximate
06:41AM -18.9872 166.4265 53° Northeast  Level FlightAware Approximate
06:42AM -18.9132 166.5293 53° Northeast  Level FlightAware Approximate
06:43AM -18.8393 166.6319 53° Northeast  Level FlightAware Approximate
06:44AM -18.7653 166.7345 53° Northeast  Level FlightAware Approximate
06:45AM -18.6912 166.8370 53° Northeast  Level FlightAware Approximate
06:46AM -18.6171 166.9394 53° Northeast  Level FlightAware Approximate
06:47AM -18.5429 167.0417 53° Northeast  Level FlightAware Approximate
06:48AM -18.4687 167.1439 53° Northeast  Level FlightAware Approximate
06:49AM -18.3944 167.2460 53° Northeast  Level FlightAware Approximate
06:50AM -18.3200 167.3480 53° Northeast  Level FlightAware Approximate
06:51AM -18.2456 167.4500 52° Northeast  Level FlightAware Approximate
06:52AM -18.1712 167.5518 52° Northeast  Level FlightAware Approximate
06:53AM -18.0966 167.6536 52° Northeast  Level FlightAware Approximate
06:54AM -18.0221 167.7553 52° Northeast  Level FlightAware Approximate
06:55AM -17.9475 167.8569 52° Northeast  Level FlightAware Approximate
06:56AM -17.8728 167.9584 52° Northeast  Level FlightAware Approximate
06:57AM -17.7981 168.0598 52° Northeast  Level FlightAware Approximate